sensor_id;sensor_type;location;lat;lon;timestamp;P1;durP1;ratioP1;P2;durP2;ratioP2
29938;SDS011;16799;50.844;5.304;2023-07-29T00:01:35;2.73;;;1.60;;
29938;SDS011;16799;50.844;5.304;2023-07-29T00:04:01;3.67;;;2.17;;
29938;SDS011;16799;50.844;5.304;2023-07-29T00:06:27;2.83;;;2.60;;
29938;SDS011;16799;50.844;5.304;2023-07-29T00:08:53;4.30;;;2.37;;
29938;SDS011;16799;50.844;5.304;2023-07-29T00:11:18;2.67;;;2.57;;
29938;SDS011;16799;50.844;5.304;2023-07-29T00:13:44;7.00;;;3.37;;
29938;SDS011;16799;50.844;5.304;2023-07-29T00:16:10;4.10;;;2.80;;
29938;SDS011;16799;50.844;5.304;2023-07-29T00:18:35;3.03;;;2.83;;
29938;SDS011;16799;50.844;5.304;2023-07-29T00:21:01;10.07;;;2.30;;
29938;SDS011;16799;50.844;5.304;2023-07-29T00:23:27;3.23;;;2.40;;
29938;SDS011;16799;50.844;5.304;2023-07-29T00:25:52;2.83;;;2.63;;
29938;SDS011;16799;50.844;5.304;2023-07-29T00:28:18;6.57;;;2.50;;
29938;SDS011;16799;50.844;5.304;2023-07-29T00:30:44;4.83;;;2.70;;
29938;SDS011;16799;50.844;5.304;2023-07-29T00:33:09;6.63;;;3.63;;
29938;SDS011;16799;50.844;5.304;2023-07-29T00:35:35;3.23;;;2.83;;
29938;SDS011;16799;50.844;5.304;2023-07-29T00:38:00;6.20;;;3.60;;
29938;SDS011;16799;50.844;5.304;2023-07-29T00:40:27;3.60;;;3.40;;
29938;SDS011;16799;50.844;5.304;2023-07-29T00:42:54;3.40;;;3.10;;
29938;SDS011;16799;50.844;5.304;2023-07-29T00:45:19;4.23;;;3.77;;
29938;SDS011;16799;50.844;5.304;2023-07-29T00:47:45;4.53;;;4.10;;
29938;SDS011;16799;50.844;5.304;2023-07-29T00:50:12;5.10;;;3.03;;
29938;SDS011;16799;50.844;5.304;2023-07-29T00:52:38;2.23;;;2.07;;
29938;SDS011;16799;50.844;5.304;2023-07-29T00:55:04;3.87;;;3.57;;
29938;SDS011;16799;50.844;5.304;2023-07-29T00:57:31;3.67;;;2.63;;
29938;SDS011;16799;50.844;5.304;2023-07-29T00:59:58;2.73;;;2.53;;
29938;SDS011;16799;50.844;5.304;2023-07-29T01:02:24;9.77;;;3.60;;
29938;SDS011;16799;50.844;5.304;2023-07-29T01:04:52;7.67;;;3.40;;
29938;SDS011;16799;50.844;5.304;2023-07-29T01:12:36;3.20;;;2.47;;
29938;SDS011;16799;50.844;5.304;2023-07-29T01:15:29;2.77;;;2.57;;
29938;SDS011;16799;50.844;5.304;2023-07-29T01:18:06;2.73;;;2.53;;
29938;SDS011;16799;50.844;5.304;2023-07-29T01:20:37;3.43;;;2.70;;
29938;SDS011;16799;50.844;5.304;2023-07-29T01:23:07;4.50;;;2.93;;
29938;SDS011;16799;50.844;5.304;2023-07-29T01:25:33;2.10;;;1.97;;
29938;SDS011;16799;50.844;5.304;2023-07-29T01:27:59;8.13;;;3.50;;
29938;SDS011;16799;50.844;5.304;2023-07-29T01:30:26;6.87;;;2.63;;
29938;SDS011;16799;50.844;5.304;2023-07-29T01:36:01;2.93;;;2.73;;
29938;SDS011;16799;50.844;5.304;2023-07-29T01:38:35;3.57;;;3.27;;
29938;SDS011;16799;50.844;5.304;2023-07-29T01:41:03;3.93;;;2.83;;
29938;SDS011;16799;50.844;5.304;2023-07-29T01:43:31;4.30;;;2.20;;
29938;SDS011;16799;50.844;5.304;2023-07-29T01:45:57;2.63;;;1.90;;
29938;SDS011;16799;50.844;5.304;2023-07-29T01:48:23;2.67;;;2.47;;
29938;SDS011;16799;50.844;5.304;2023-07-29T01:50:49;2.00;;;1.80;;
29938;SDS011;16799;50.844;5.304;2023-07-29T01:53:15;2.67;;;2.33;;
29938;SDS011;16799;50.844;5.304;2023-07-29T01:55:41;2.03;;;1.93;;
29938;SDS011;16799;50.844;5.304;2023-07-29T01:58:07;9.27;;;2.20;;
29938;SDS011;16799;50.844;5.304;2023-07-29T02:00:33;4.43;;;2.50;;
29938;SDS011;16799;50.844;5.304;2023-07-29T02:02:58;1.90;;;1.80;;
29938;SDS011;16799;50.844;5.304;2023-07-29T02:05:24;9.07;;;2.93;;
29938;SDS011;16799;50.844;5.304;2023-07-29T02:07:49;2.13;;;1.93;;
29938;SDS011;16799;50.844;5.304;2023-07-29T02:10:15;1.80;;;1.70;;
29938;SDS011;16799;50.844;5.304;2023-07-29T02:12:41;6.27;;;2.30;;
29938;SDS011;16799;50.844;5.304;2023-07-29T02:15:07;6.57;;;2.83;;
29938;SDS011;16799;50.844;5.304;2023-07-29T02:17:33;7.77;;;2.13;;
29938;SDS011;16799;50.844;5.304;2023-07-29T02:19:59;2.17;;;2.00;;
29938;SDS011;16799;50.844;5.304;2023-07-29T02:22:25;2.70;;;2.23;;
29938;SDS011;16799;50.844;5.304;2023-07-29T02:24:50;2.40;;;1.97;;
29938;SDS011;16799;50.844;5.304;2023-07-29T02:27:16;4.97;;;2.93;;
29938;SDS011;16799;50.844;5.304;2023-07-29T02:29:41;7.23;;;2.00;;
29938;SDS011;16799;50.844;5.304;2023-07-29T02:32:07;2.17;;;2.00;;
29938;SDS011;16799;50.844;5.304;2023-07-29T02:34:33;2.03;;;1.70;;
29938;SDS011;16799;50.844;5.304;2023-07-29T02:36:59;2.60;;;1.90;;
29938;SDS011;16799;50.844;5.304;2023-07-29T02:39:25;3.13;;;1.90;;
29938;SDS011;16799;50.844;5.304;2023-07-29T02:41:50;2.17;;;2.07;;
29938;SDS011;16799;50.844;5.304;2023-07-29T02:44:16;2.23;;;1.90;;
29938;SDS011;16799;50.844;5.304;2023-07-29T02:46:42;3.10;;;2.23;;
29938;SDS011;16799;50.844;5.304;2023-07-29T02:49:07;2.70;;;1.37;;
29938;SDS011;16799;50.844;5.304;2023-07-29T02:51:33;1.97;;;1.60;;
29938;SDS011;16799;50.844;5.304;2023-07-29T02:53:58;5.23;;;2.47;;
29938;SDS011;16799;50.844;5.304;2023-07-29T02:56:24;5.27;;;3.00;;
29938;SDS011;16799;50.844;5.304;2023-07-29T02:58:50;6.80;;;2.53;;
29938;SDS011;16799;50.844;5.304;2023-07-29T03:01:18;10.43;;;2.77;;
29938;SDS011;16799;50.844;5.304;2023-07-29T03:03:44;2.80;;;2.60;;
29938;SDS011;16799;50.844;5.304;2023-07-29T03:06:11;2.50;;;2.30;;
29938;SDS011;16799;50.844;5.304;2023-07-29T03:08:38;2.53;;;2.33;;
29938;SDS011;16799;50.844;5.304;2023-07-29T03:11:08;3.10;;;2.90;;
29938;SDS011;16799;50.844;5.304;2023-07-29T03:13:35;7.00;;;2.70;;
29938;SDS011;16799;50.844;5.304;2023-07-29T03:16:11;3.67;;;2.60;;
29938;SDS011;16799;50.844;5.304;2023-07-29T03:18:42;5.00;;;2.40;;
29938;SDS011;16799;50.844;5.304;2023-07-29T03:21:08;2.77;;;2.53;;
29938;SDS011;16799;50.844;5.304;2023-07-29T03:23:34;9.57;;;2.90;;
29938;SDS011;16799;50.844;5.304;2023-07-29T03:26:01;2.87;;;2.53;;
29938;SDS011;16799;50.844;5.304;2023-07-29T03:28:34;4.63;;;2.23;;
29938;SDS011;16799;50.844;5.304;2023-07-29T03:31:00;2.17;;;1.80;;
29938;SDS011;16799;50.844;5.304;2023-07-29T03:33:26;2.20;;;2.00;;
29938;SDS011;16799;50.844;5.304;2023-07-29T03:35:52;4.50;;;1.77;;
29938;SDS011;16799;50.844;5.304;2023-07-29T03:38:18;2.03;;;1.87;;
29938;SDS011;16799;50.844;5.304;2023-07-29T03:40:44;3.67;;;3.00;;
29938;SDS011;16799;50.844;5.304;2023-07-29T03:43:09;2.90;;;2.17;;
29938;SDS011;16799;50.844;5.304;2023-07-29T03:45:35;2.80;;;2.60;;
29938;SDS011;16799;50.844;5.304;2023-07-29T03:48:02;5.13;;;2.73;;
29938;SDS011;16799;50.844;5.304;2023-07-29T03:50:28;3.20;;;2.87;;
29938;SDS011;16799;50.844;5.304;2023-07-29T03:52:54;2.87;;;2.67;;
29938;SDS011;16799;50.844;5.304;2023-07-29T03:55:20;2.37;;;2.17;;
29938;SDS011;16799;50.844;5.304;2023-07-29T03:57:46;3.90;;;2.47;;
29938;SDS011;16799;50.844;5.304;2023-07-29T04:00:12;2.50;;;2.10;;
29938;SDS011;16799;50.844;5.304;2023-07-29T04:02:38;3.80;;;2.67;;
29938;SDS011;16799;50.844;5.304;2023-07-29T04:05:04;4.70;;;2.07;;
29938;SDS011;16799;50.844;5.304;2023-07-29T04:07:33;4.73;;;2.40;;
29938;SDS011;16799;50.844;5.304;2023-07-29T04:09:59;3.77;;;2.33;;
29938;SDS011;16799;50.844;5.304;2023-07-29T04:12:25;3.50;;;2.57;;
29938;SDS011;16799;50.844;5.304;2023-07-29T04:14:51;4.90;;;2.50;;
29938;SDS011;16799;50.844;5.304;2023-07-29T04:17:17;2.33;;;2.13;;
29938;SDS011;16799;50.844;5.304;2023-07-29T04:19:42;3.70;;;2.30;;
29938;SDS011;16799;50.844;5.304;2023-07-29T04:22:08;3.80;;;3.30;;
29938;SDS011;16799;50.844;5.304;2023-07-29T04:24:34;3.33;;;2.07;;
29938;SDS011;16799;50.844;5.304;2023-07-29T04:26:59;3.53;;;2.97;;
29938;SDS011;16799;50.844;5.304;2023-07-29T04:29:25;3.00;;;2.47;;
29938;SDS011;16799;50.844;5.304;2023-07-29T04:31:50;3.70;;;3.20;;
29938;SDS011;16799;50.844;5.304;2023-07-29T04:34:19;10.00;;;2.37;;
29938;SDS011;16799;50.844;5.304;2023-07-29T04:36:45;5.00;;;3.00;;
29938;SDS011;16799;50.844;5.304;2023-07-29T04:39:11;4.40;;;2.93;;
29938;SDS011;16799;50.844;5.304;2023-07-29T04:41:37;7.30;;;2.93;;
29938;SDS011;16799;50.844;5.304;2023-07-29T04:44:03;19.10;;;3.10;;
29938;SDS011;16799;50.844;5.304;2023-07-29T04:46:29;6.43;;;2.73;;
29938;SDS011;16799;50.844;5.304;2023-07-29T04:48:54;4.43;;;2.80;;
29938;SDS011;16799;50.844;5.304;2023-07-29T04:51:21;5.10;;;3.00;;
29938;SDS011;16799;50.844;5.304;2023-07-29T04:53:46;5.53;;;3.27;;
29938;SDS011;16799;50.844;5.304;2023-07-29T04:56:12;4.80;;;2.60;;
29938;SDS011;16799;50.844;5.304;2023-07-29T04:58:38;5.27;;;2.90;;
29938;SDS011;16799;50.844;5.304;2023-07-29T05:01:05;4.33;;;3.00;;
29938;SDS011;16799;50.844;5.304;2023-07-29T05:03:31;9.23;;;3.70;;
29938;SDS011;16799;50.844;5.304;2023-07-29T05:05:57;2.80;;;2.60;;
29938;SDS011;16799;50.844;5.304;2023-07-29T05:08:25;6.93;;;3.47;;
29938;SDS011;16799;50.844;5.304;2023-07-29T05:10:52;5.80;;;3.40;;
29938;SDS011;16799;50.844;5.304;2023-07-29T05:13:19;2.33;;;2.13;;
29938;SDS011;16799;50.844;5.304;2023-07-29T05:15:46;3.60;;;2.70;;
29938;SDS011;16799;50.844;5.304;2023-07-29T05:18:12;3.57;;;2.80;;
29938;SDS011;16799;50.844;5.304;2023-07-29T05:20:39;9.13;;;3.53;;
29938;SDS011;16799;50.844;5.304;2023-07-29T05:23:04;3.20;;;2.90;;
29938;SDS011;16799;50.844;5.304;2023-07-29T05:25:30;2.77;;;2.57;;
29938;SDS011;16799;50.844;5.304;2023-07-29T05:27:55;4.43;;;2.77;;
29938;SDS011;16799;50.844;5.304;2023-07-29T05:30:22;2.63;;;2.43;;
29938;SDS011;16799;50.844;5.304;2023-07-29T05:32:48;4.17;;;2.13;;
29938;SDS011;16799;50.844;5.304;2023-07-29T05:35:13;3.43;;;3.13;;
29938;SDS011;16799;50.844;5.304;2023-07-29T05:37:39;6.53;;;2.90;;
29938;SDS011;16799;50.844;5.304;2023-07-29T05:40:05;6.07;;;2.40;;
29938;SDS011;16799;50.844;5.304;2023-07-29T05:42:32;3.60;;;2.20;;
29938;SDS011;16799;50.844;5.304;2023-07-29T05:44:59;4.03;;;2.57;;
29938;SDS011;16799;50.844;5.304;2023-07-29T05:47:24;4.20;;;2.53;;
29938;SDS011;16799;50.844;5.304;2023-07-29T05:49:50;4.20;;;3.00;;
29938;SDS011;16799;50.844;5.304;2023-07-29T05:52:16;2.33;;;2.00;;
29938;SDS011;16799;50.844;5.304;2023-07-29T05:54:41;3.53;;;2.20;;
29938;SDS011;16799;50.844;5.304;2023-07-29T05:57:08;7.00;;;2.30;;
29938;SDS011;16799;50.844;5.304;2023-07-29T05:59:34;6.10;;;2.27;;
29938;SDS011;16799;50.844;5.304;2023-07-29T06:02:00;3.83;;;1.70;;
29938;SDS011;16799;50.844;5.304;2023-07-29T06:04:26;10.33;;;3.73;;
29938;SDS011;16799;50.844;5.304;2023-07-29T06:06:52;5.50;;;2.30;;
29938;SDS011;16799;50.844;5.304;2023-07-29T06:09:17;6.27;;;1.53;;
29938;SDS011;16799;50.844;5.304;2023-07-29T06:11:43;4.30;;;2.10;;
29938;SDS011;16799;50.844;5.304;2023-07-29T06:14:09;4.43;;;2.53;;
29938;SDS011;16799;50.844;5.304;2023-07-29T06:16:34;1.80;;;1.63;;
29938;SDS011;16799;50.844;5.304;2023-07-29T06:19:00;4.40;;;2.03;;
29938;SDS011;16799;50.844;5.304;2023-07-29T06:21:26;1.77;;;1.67;;
29938;SDS011;16799;50.844;5.304;2023-07-29T06:23:51;7.37;;;2.40;;
29938;SDS011;16799;50.844;5.304;2023-07-29T06:26:17;1.90;;;1.80;;
29938;SDS011;16799;50.844;5.304;2023-07-29T06:28:43;2.60;;;2.40;;
29938;SDS011;16799;50.844;5.304;2023-07-29T06:31:09;2.27;;;1.83;;
29938;SDS011;16799;50.844;5.304;2023-07-29T06:33:34;3.30;;;2.00;;
29938;SDS011;16799;50.844;5.304;2023-07-29T06:36:00;2.53;;;1.40;;
29938;SDS011;16799;50.844;5.304;2023-07-29T06:38:26;3.27;;;1.90;;
29938;SDS011;16799;50.844;5.304;2023-07-29T06:40:51;5.17;;;1.63;;
29938;SDS011;16799;50.844;5.304;2023-07-29T06:43:17;1.40;;;1.30;;
29938;SDS011;16799;50.844;5.304;2023-07-29T06:45:43;3.20;;;1.27;;
29938;SDS011;16799;50.844;5.304;2023-07-29T06:48:09;3.10;;;1.67;;
29938;SDS011;16799;50.844;5.304;2023-07-29T06:50:34;3.60;;;1.50;;
29938;SDS011;16799;50.844;5.304;2023-07-29T06:53:00;1.67;;;1.57;;
29938;SDS011;16799;50.844;5.304;2023-07-29T06:55:26;3.60;;;1.40;;
29938;SDS011;16799;50.844;5.304;2023-07-29T06:57:51;5.83;;;1.73;;
29938;SDS011;16799;50.844;5.304;2023-07-29T07:00:17;3.40;;;1.20;;
29938;SDS011;16799;50.844;5.304;2023-07-29T07:02:43;2.00;;;1.27;;
29938;SDS011;16799;50.844;5.304;2023-07-29T07:05:08;2.40;;;1.33;;
29938;SDS011;16799;50.844;5.304;2023-07-29T07:07:34;3.33;;;1.80;;
29938;SDS011;16799;50.844;5.304;2023-07-29T07:10:00;1.93;;;1.77;;
29938;SDS011;16799;50.844;5.304;2023-07-29T07:12:26;4.70;;;1.33;;
29938;SDS011;16799;50.844;5.304;2023-07-29T07:14:51;2.03;;;1.60;;
29938;SDS011;16799;50.844;5.304;2023-07-29T07:17:17;6.63;;;1.30;;
29938;SDS011;16799;50.844;5.304;2023-07-29T07:19:43;1.73;;;1.10;;
29938;SDS011;16799;50.844;5.304;2023-07-29T07:22:09;3.47;;;1.47;;
29938;SDS011;16799;50.844;5.304;2023-07-29T07:24:34;1.50;;;1.40;;
29938;SDS011;16799;50.844;5.304;2023-07-29T07:27:00;1.33;;;1.23;;
29938;SDS011;16799;50.844;5.304;2023-07-29T07:29:26;2.87;;;1.73;;
29938;SDS011;16799;50.844;5.304;2023-07-29T07:31:52;1.97;;;1.80;;
29938;SDS011;16799;50.844;5.304;2023-07-29T07:34:19;1.63;;;1.37;;
29938;SDS011;16799;50.844;5.304;2023-07-29T07:36:45;3.47;;;1.43;;
29938;SDS011;16799;50.844;5.304;2023-07-29T07:39:11;2.10;;;1.90;;
29938;SDS011;16799;50.844;5.304;2023-07-29T07:41:37;3.80;;;1.53;;
29938;SDS011;16799;50.844;5.304;2023-07-29T07:44:03;6.40;;;1.50;;
29938;SDS011;16799;50.844;5.304;2023-07-29T07:46:29;2.87;;;1.37;;
29938;SDS011;16799;50.844;5.304;2023-07-29T07:48:54;3.97;;;2.00;;
29938;SDS011;16799;50.844;5.304;2023-07-29T07:51:20;10.33;;;2.33;;
29938;SDS011;16799;50.844;5.304;2023-07-29T07:53:46;2.63;;;1.57;;
29938;SDS011;16799;50.844;5.304;2023-07-29T07:56:11;5.67;;;1.90;;
29938;SDS011;16799;50.844;5.304;2023-07-29T07:58:37;1.23;;;1.10;;
29938;SDS011;16799;50.844;5.304;2023-07-29T08:01:03;1.63;;;1.53;;
29938;SDS011;16799;50.844;5.304;2023-07-29T08:03:30;1.83;;;1.43;;
29938;SDS011;16799;50.844;5.304;2023-07-29T08:05:56;2.33;;;2.20;;
29938;SDS011;16799;50.844;5.304;2023-07-29T08:08:21;1.43;;;1.27;;
29938;SDS011;16799;50.844;5.304;2023-07-29T08:10:47;2.63;;;1.10;;
29938;SDS011;16799;50.844;5.304;2023-07-29T08:13:12;1.40;;;1.30;;
29938;SDS011;16799;50.844;5.304;2023-07-29T08:15:38;2.60;;;1.67;;
29938;SDS011;16799;50.844;5.304;2023-07-29T08:18:06;1.33;;;1.23;;
29938;SDS011;16799;50.844;5.304;2023-07-29T08:20:31;1.47;;;1.30;;
29938;SDS011;16799;50.844;5.304;2023-07-29T08:22:57;1.93;;;1.40;;
29938;SDS011;16799;50.844;5.304;2023-07-29T08:25:23;1.63;;;1.53;;
29938;SDS011;16799;50.844;5.304;2023-07-29T08:27:49;2.67;;;1.27;;
29938;SDS011;16799;50.844;5.304;2023-07-29T08:30:14;2.20;;;2.00;;
29938;SDS011;16799;50.844;5.304;2023-07-29T08:32:41;3.17;;;1.80;;
29938;SDS011;16799;50.844;5.304;2023-07-29T08:35:07;4.87;;;2.20;;
29938;SDS011;16799;50.844;5.304;2023-07-29T08:37:32;2.30;;;1.40;;
29938;SDS011;16799;50.844;5.304;2023-07-29T08:39:58;7.10;;;1.83;;
29938;SDS011;16799;50.844;5.304;2023-07-29T08:42:26;1.77;;;1.20;;
29938;SDS011;16799;50.844;5.304;2023-07-29T08:44:56;2.13;;;1.93;;
29938;SDS011;16799;50.844;5.304;2023-07-29T08:47:24;3.20;;;1.67;;
29938;SDS011;16799;50.844;5.304;2023-07-29T08:49:50;2.80;;;1.00;;
29938;SDS011;16799;50.844;5.304;2023-07-29T08:52:17;1.83;;;1.30;;
29938;SDS011;16799;50.844;5.304;2023-07-29T08:54:43;2.60;;;1.13;;
29938;SDS011;16799;50.844;5.304;2023-07-29T08:57:10;6.73;;;1.40;;
29938;SDS011;16799;50.844;5.304;2023-07-29T08:59:35;1.73;;;1.63;;
29938;SDS011;16799;50.844;5.304;2023-07-29T09:02:02;1.30;;;1.20;;
29938;SDS011;16799;50.844;5.304;2023-07-29T09:04:28;4.00;;;1.30;;
29938;SDS011;16799;50.844;5.304;2023-07-29T09:06:54;1.83;;;1.47;;
29938;SDS011;16799;50.844;5.304;2023-07-29T09:09:21;1.67;;;1.50;;
29938;SDS011;16799;50.844;5.304;2023-07-29T09:11:47;6.90;;;1.73;;
29938;SDS011;16799;50.844;5.304;2023-07-29T09:14:13;3.57;;;1.43;;
29938;SDS011;16799;50.844;5.304;2023-07-29T09:16:39;1.40;;;1.30;;
29938;SDS011;16799;50.844;5.304;2023-07-29T09:19:06;2.50;;;1.23;;
29938;SDS011;16799;50.844;5.304;2023-07-29T09:21:32;2.50;;;1.40;;
29938;SDS011;16799;50.844;5.304;2023-07-29T09:23:57;7.70;;;1.50;;
29938;SDS011;16799;50.844;5.304;2023-07-29T09:26:29;1.30;;;1.20;;
29938;SDS011;16799;50.844;5.304;2023-07-29T09:28:57;1.30;;;1.10;;
29938;SDS011;16799;50.844;5.304;2023-07-29T09:31:24;1.43;;;1.27;;
29938;SDS011;16799;50.844;5.304;2023-07-29T09:36:23;1.50;;;1.40;;
29938;SDS011;16799;50.844;5.304;2023-07-29T09:38:56;2.37;;;0.90;;
29938;SDS011;16799;50.844;5.304;2023-07-29T09:41:26;2.17;;;2.03;;
29938;SDS011;16799;50.844;5.304;2023-07-29T09:43:56;2.43;;;1.50;;
29938;SDS011;16799;50.844;5.304;2023-07-29T09:46:23;3.07;;;1.27;;
29938;SDS011;16799;50.844;5.304;2023-07-29T09:48:52;1.40;;;1.20;;
29938;SDS011;16799;50.844;5.304;2023-07-29T09:51:20;3.07;;;1.63;;
29938;SDS011;16799;50.844;5.304;2023-07-29T09:53:47;7.17;;;1.33;;
29938;SDS011;16799;50.844;5.304;2023-07-29T09:56:14;2.10;;;1.27;;
29938;SDS011;16799;50.844;5.304;2023-07-29T09:58:42;1.77;;;1.43;;
29938;SDS011;16799;50.844;5.304;2023-07-29T10:01:10;1.10;;;1.00;;
29938;SDS011;16799;50.844;5.304;2023-07-29T10:03:36;2.13;;;1.00;;
29938;SDS011;16799;50.844;5.304;2023-07-29T10:06:03;1.37;;;1.20;;
29938;SDS011;16799;50.844;5.304;2023-07-29T10:08:30;1.20;;;1.10;;
29938;SDS011;16799;50.844;5.304;2023-07-29T10:11:06;3.03;;;1.17;;
29938;SDS011;16799;50.844;5.304;2023-07-29T10:13:33;2.93;;;1.20;;
29938;SDS011;16799;50.844;5.304;2023-07-29T10:15:59;1.50;;;1.40;;
29938;SDS011;16799;50.844;5.304;2023-07-29T10:18:28;2.13;;;1.20;;
29938;SDS011;16799;50.844;5.304;2023-07-29T10:20:56;3.00;;;1.50;;
29938;SDS011;16799;50.844;5.304;2023-07-29T10:23:27;2.13;;;1.20;;
29938;SDS011;16799;50.844;5.304;2023-07-29T10:26:03;1.13;;;1.03;;
29938;SDS011;16799;50.844;5.304;2023-07-29T10:28:30;2.47;;;1.27;;
29938;SDS011;16799;50.844;5.304;2023-07-29T10:30:57;2.07;;;1.10;;
29938;SDS011;16799;50.844;5.304;2023-07-29T10:33:24;2.50;;;1.00;;
29938;SDS011;16799;50.844;5.304;2023-07-29T10:35:50;1.67;;;1.37;;
29938;SDS011;16799;50.844;5.304;2023-07-29T10:38:17;1.50;;;1.10;;
29938;SDS011;16799;50.844;5.304;2023-07-29T10:40:51;2.70;;;1.20;;
29938;SDS011;16799;50.844;5.304;2023-07-29T10:43:25;2.10;;;1.30;;
29938;SDS011;16799;50.844;5.304;2023-07-29T10:45:57;1.47;;;1.37;;
29938;SDS011;16799;50.844;5.304;2023-07-29T11:01:42;6.93;;;1.50;;
29938;SDS011;16799;50.844;5.304;2023-07-29T11:07:01;1.63;;;1.53;;
29938;SDS011;16799;50.844;5.304;2023-07-29T11:14:59;7.00;;;2.23;;
29938;SDS011;16799;50.844;5.304;2023-07-29T11:17:27;2.07;;;1.33;;
29938;SDS011;16799;50.844;5.304;2023-07-29T11:19:55;2.70;;;1.57;;
29938;SDS011;16799;50.844;5.304;2023-07-29T11:22:25;1.50;;;1.40;;
29938;SDS011;16799;50.844;5.304;2023-07-29T11:24:51;1.57;;;1.47;;
29938;SDS011;16799;50.844;5.304;2023-07-29T11:27:16;2.13;;;1.93;;
29938;SDS011;16799;50.844;5.304;2023-07-29T11:29:43;4.50;;;1.87;;
29938;SDS011;16799;50.844;5.304;2023-07-29T11:32:09;3.07;;;1.90;;
29938;SDS011;16799;50.844;5.304;2023-07-29T11:34:35;1.87;;;1.30;;
29938;SDS011;16799;50.844;5.304;2023-07-29T11:37:00;2.30;;;2.10;;
29938;SDS011;16799;50.844;5.304;2023-07-29T11:39:26;7.40;;;3.10;;
29938;SDS011;16799;50.844;5.304;2023-07-29T11:41:51;6.67;;;1.80;;
29938;SDS011;16799;50.844;5.304;2023-07-29T11:44:17;6.70;;;1.53;;
29938;SDS011;16799;50.844;5.304;2023-07-29T11:46:43;3.47;;;2.57;;
29938;SDS011;16799;50.844;5.304;2023-07-29T11:49:09;2.47;;;2.27;;
29938;SDS011;16799;50.844;5.304;2023-07-29T11:51:36;1.97;;;1.63;;
29938;SDS011;16799;50.844;5.304;2023-07-29T11:54:02;2.50;;;1.13;;
29938;SDS011;16799;50.844;5.304;2023-07-29T11:56:28;2.63;;;1.67;;
29938;SDS011;16799;50.844;5.304;2023-07-29T11:58:55;7.63;;;2.43;;
29938;SDS011;16799;50.844;5.304;2023-07-29T12:01:21;3.00;;;2.67;;
29938;SDS011;16799;50.844;5.304;2023-07-29T12:03:47;12.37;;;2.43;;
29938;SDS011;16799;50.844;5.304;2023-07-29T12:06:15;3.67;;;1.67;;
29938;SDS011;16799;50.844;5.304;2023-07-29T12:08:41;1.83;;;1.73;;
29938;SDS011;16799;50.844;5.304;2023-07-29T12:11:08;2.00;;;1.90;;
29938;SDS011;16799;50.844;5.304;2023-07-29T12:13:36;3.33;;;2.10;;
29938;SDS011;16799;50.844;5.304;2023-07-29T12:16:02;1.90;;;1.67;;
29938;SDS011;16799;50.844;5.304;2023-07-29T12:18:35;2.50;;;1.60;;
29938;SDS011;16799;50.844;5.304;2023-07-29T12:21:01;4.07;;;1.50;;
29938;SDS011;16799;50.844;5.304;2023-07-29T12:23:28;1.90;;;1.80;;
29938;SDS011;16799;50.844;5.304;2023-07-29T12:25:58;3.40;;;1.90;;
29938;SDS011;16799;50.844;5.304;2023-07-29T12:28:24;2.60;;;2.40;;
29938;SDS011;16799;50.844;5.304;2023-07-29T12:30:54;2.07;;;1.87;;
29938;SDS011;16799;50.844;5.304;2023-07-29T12:33:33;3.20;;;3.00;;
29938;SDS011;16799;50.844;5.304;2023-07-29T12:36:01;5.10;;;2.93;;
29938;SDS011;16799;50.844;5.304;2023-07-29T12:38:27;5.90;;;3.23;;
29938;SDS011;16799;50.844;5.304;2023-07-29T12:40:54;2.47;;;2.23;;
29938;SDS011;16799;50.844;5.304;2023-07-29T12:43:20;2.63;;;2.53;;
29938;SDS011;16799;50.844;5.304;2023-07-29T12:45:48;1.83;;;1.70;;
29938;SDS011;16799;50.844;5.304;2023-07-29T12:48:14;3.20;;;2.00;;
29938;SDS011;16799;50.844;5.304;2023-07-29T12:50:40;1.73;;;1.63;;
29938;SDS011;16799;50.844;5.304;2023-07-29T12:53:06;1.73;;;1.63;;
29938;SDS011;16799;50.844;5.304;2023-07-29T12:55:33;2.00;;;1.90;;
29938;SDS011;16799;50.844;5.304;2023-07-29T12:57:58;4.57;;;1.73;;
29938;SDS011;16799;50.844;5.304;2023-07-29T13:00:24;2.33;;;2.13;;
29938;SDS011;16799;50.844;5.304;2023-07-29T13:02:50;1.70;;;1.60;;
29938;SDS011;16799;50.844;5.304;2023-07-29T13:05:16;2.37;;;2.27;;
29938;SDS011;16799;50.844;5.304;2023-07-29T13:07:42;2.03;;;1.93;;
29938;SDS011;16799;50.844;5.304;2023-07-29T13:10:08;2.30;;;2.10;;
29938;SDS011;16799;50.844;5.304;2023-07-29T13:12:37;2.20;;;2.00;;
29938;SDS011;16799;50.844;5.304;2023-07-29T13:15:03;1.30;;;1.13;;
29938;SDS011;16799;50.844;5.304;2023-07-29T13:17:30;3.40;;;1.73;;
29938;SDS011;16799;50.844;5.304;2023-07-29T13:19:55;1.40;;;1.30;;
29938;SDS011;16799;50.844;5.304;2023-07-29T13:22:21;2.23;;;2.00;;
29938;SDS011;16799;50.844;5.304;2023-07-29T13:24:47;1.70;;;1.60;;
29938;SDS011;16799;50.844;5.304;2023-07-29T13:27:12;2.30;;;2.10;;
29938;SDS011;16799;50.844;5.304;2023-07-29T13:29:39;2.50;;;2.00;;
29938;SDS011;16799;50.844;5.304;2023-07-29T13:32:05;3.53;;;1.67;;
29938;SDS011;16799;50.844;5.304;2023-07-29T13:34:31;3.30;;;1.67;;
29938;SDS011;16799;50.844;5.304;2023-07-29T13:36:57;1.90;;;1.80;;
29938;SDS011;16799;50.844;5.304;2023-07-29T13:39:23;3.20;;;1.60;;
29938;SDS011;16799;50.844;5.304;2023-07-29T13:41:48;2.27;;;2.10;;
29938;SDS011;16799;50.844;5.304;2023-07-29T13:44:14;2.50;;;2.30;;
29938;SDS011;16799;50.844;5.304;2023-07-29T13:46:39;2.77;;;2.57;;
29938;SDS011;16799;50.844;5.304;2023-07-29T13:49:05;2.20;;;2.03;;
29938;SDS011;16799;50.844;5.304;2023-07-29T13:51:31;1.90;;;1.70;;
29938;SDS011;16799;50.844;5.304;2023-07-29T13:53:56;2.80;;;2.60;;
29938;SDS011;16799;50.844;5.304;2023-07-29T13:56:22;5.23;;;2.53;;
29938;SDS011;16799;50.844;5.304;2023-07-29T13:58:48;2.60;;;2.17;;
29938;SDS011;16799;50.844;5.304;2023-07-29T14:01:13;10.50;;;2.17;;
29938;SDS011;16799;50.844;5.304;2023-07-29T14:03:39;1.87;;;1.77;;
29938;SDS011;16799;50.844;5.304;2023-07-29T14:06:05;3.20;;;2.07;;
29938;SDS011;16799;50.844;5.304;2023-07-29T14:08:30;2.17;;;2.07;;
29938;SDS011;16799;50.844;5.304;2023-07-29T14:10:56;3.20;;;1.83;;
29938;SDS011;16799;50.844;5.304;2023-07-29T14:13:22;2.40;;;1.60;;
29938;SDS011;16799;50.844;5.304;2023-07-29T14:15:47;2.50;;;2.40;;
29938;SDS011;16799;50.844;5.304;2023-07-29T14:18:13;4.20;;;1.73;;
29938;SDS011;16799;50.844;5.304;2023-07-29T14:20:38;1.83;;;1.67;;
29938;SDS011;16799;50.844;5.304;2023-07-29T14:23:04;1.53;;;1.40;;
29938;SDS011;16799;50.844;5.304;2023-07-29T14:25:30;1.87;;;1.47;;
29938;SDS011;16799;50.844;5.304;2023-07-29T14:27:55;2.00;;;1.30;;
29938;SDS011;16799;50.844;5.304;2023-07-29T14:30:21;1.43;;;1.33;;
29938;SDS011;16799;50.844;5.304;2023-07-29T14:32:47;1.87;;;1.67;;
29938;SDS011;16799;50.844;5.304;2023-07-29T14:35:13;1.90;;;1.80;;
29938;SDS011;16799;50.844;5.304;2023-07-29T14:37:39;1.10;;;1.00;;
29938;SDS011;16799;50.844;5.304;2023-07-29T14:40:05;2.03;;;1.37;;
29938;SDS011;16799;50.844;5.304;2023-07-29T14:42:31;1.00;;;0.80;;
29938;SDS011;16799;50.844;5.304;2023-07-29T14:44:57;1.13;;;0.87;;
29938;SDS011;16799;50.844;5.304;2023-07-29T14:47:22;0.90;;;0.80;;
29938;SDS011;16799;50.844;5.304;2023-07-29T14:49:48;0.93;;;0.87;;
29938;SDS011;16799;50.844;5.304;2023-07-29T14:52:13;1.23;;;1.13;;
29938;SDS011;16799;50.844;5.304;2023-07-29T14:54:39;1.20;;;1.10;;
29938;SDS011;16799;50.844;5.304;2023-07-29T14:57:05;2.13;;;1.00;;
29938;SDS011;16799;50.844;5.304;2023-07-29T14:59:32;6.53;;;1.17;;
29938;SDS011;16799;50.844;5.304;2023-07-29T15:01:58;1.73;;;1.30;;
29938;SDS011;16799;50.844;5.304;2023-07-29T15:04:24;1.17;;;0.90;;
29938;SDS011;16799;50.844;5.304;2023-07-29T15:06:49;1.67;;;1.30;;
29938;SDS011;16799;50.844;5.304;2023-07-29T15:09:15;0.90;;;0.70;;
29938;SDS011;16799;50.844;5.304;2023-07-29T15:11:41;0.97;;;0.87;;
29938;SDS011;16799;50.844;5.304;2023-07-29T15:14:07;1.10;;;0.90;;
29938;SDS011;16799;50.844;5.304;2023-07-29T15:16:32;1.30;;;0.90;;